createdAt,value
2022-12-18T00:01:49.924Z,102256.84
2022-12-18T00:04:52.657Z,102266.06
2022-12-18T00:07:55.495Z,102272.66
2022-12-18T00:11:07.066Z,102279.09
2022-12-18T00:14:13.016Z,102274.50
2022-12-18T00:17:15.789Z,102278.88
2022-12-18T00:20:22.844Z,102278.47
2022-12-18T00:23:25.814Z,102288.25
2022-12-18T00:26:34.474Z,102295.44
2022-12-18T00:29:41.448Z,102301.03
2022-12-18T00:32:44.300Z,102291.88
2022-12-18T00:35:47.090Z,102302.16
2022-12-18T00:38:50.234Z,102314.09
2022-12-18T00:42:12.796Z,102320.16
2022-12-18T00:45:16.075Z,102335.31
2022-12-18T00:48:19.159Z,102332.50
2022-12-18T00:51:21.990Z,102330.06
2022-12-18T00:54:25.080Z,102330.47
2022-12-18T00:57:27.842Z,102324.25
2022-12-18T01:00:30.637Z,102339.44
2022-12-18T01:03:34.038Z,102343.88
2022-12-18T01:06:37.077Z,102342.97
2022-12-18T01:09:39.964Z,102357.16
2022-12-18T01:12:42.904Z,102359.63
2022-12-18T01:15:52.825Z,102356.41
2022-12-18T01:18:56.601Z,102364.06
2022-12-18T01:22:00.160Z,102371.28
2022-12-18T01:25:03.766Z,102374.56
2022-12-18T01:28:07.794Z,102367.41
2022-12-18T01:31:26.272Z,102372.13
2022-12-18T01:34:29.123Z,102373.97
2022-12-18T01:37:32.183Z,102368.31
2022-12-18T01:40:34.957Z,102370.34
2022-12-18T01:43:49.840Z,102370.34
2022-12-18T01:46:52.552Z,102361.84
2022-12-18T01:49:56.888Z,102362.91
2022-12-18T01:53:21.817Z,102370.75
2022-12-18T01:56:24.893Z,102363.63
2022-12-18T01:59:29.869Z,102364.63
2022-12-18T02:02:32.783Z,102371.50
2022-12-18T02:06:01.371Z,102386.53
2022-12-18T02:09:21.834Z,102389.84
2022-12-18T02:12:41.328Z,102382.41
2022-12-18T02:16:08.319Z,102388.31
2022-12-18T02:19:32.783Z,102384.19
2022-12-18T02:23:05.588Z,102394.13
2022-12-18T02:26:35.854Z,102403.13
2022-12-18T02:29:45.544Z,102417.25
2022-12-18T02:32:54.939Z,102405.13
2022-12-18T02:35:59.515Z,102393.91
2022-12-18T02:39:05.436Z,102408.03
2022-12-18T02:42:11.239Z,102408.84
2022-12-18T02:45:14.191Z,102401.84
2022-12-18T02:48:20.019Z,102403.59
2022-12-18T02:51:32.387Z,102415.50
2022-12-18T02:54:51.488Z,102409.16
2022-12-18T02:57:57.145Z,102417.25
2022-12-18T03:01:19.509Z,102421.28
2022-12-18T03:04:29.100Z,102426.28
2022-12-18T03:08:00.860Z,102423.75
2022-12-18T03:11:10.304Z,102425.13
2022-12-18T03:14:17.849Z,102416.53
2022-12-18T03:17:26.503Z,102420.41
2022-12-18T03:20:32.597Z,102425.69
2022-12-18T03:23:42.480Z,102428.97
2022-12-18T03:26:50.554Z,102436.59
2022-12-18T03:30:08.432Z,102445.28
2022-12-18T03:33:20.785Z,102441.44
2022-12-18T03:36:26.199Z,102452.78
2022-12-18T03:39:29.164Z,102459.50
2022-12-18T03:43:01.974Z,102457.91
2022-12-18T03:46:16.793Z,102472.94
2022-12-18T03:49:36.227Z,102476.03
2022-12-18T03:52:47.630Z,102480.03
2022-12-18T03:55:53.032Z,102478.22
2022-12-18T03:58:57.809Z,102470.56
2022-12-18T04:02:05.246Z,102495.53
2022-12-18T04:05:09.676Z,102503.81
2022-12-18T04:08:16.130Z,102494.19
2022-12-18T04:11:26.046Z,102497.63
2022-12-18T04:14:29.884Z,102499.50
2022-12-18T04:17:33.500Z,102506.75
2022-12-18T04:20:37.296Z,102507.63
2022-12-18T04:23:40.907Z,102508.00
2022-12-18T04:26:44.252Z,102503.66
2022-12-18T04:29:51.559Z,102518.16
2022-12-18T04:32:54.752Z,102512.13
2022-12-18T04:35:59.070Z,102512.13
2022-12-18T04:39:02.564Z,102528.00
2022-12-18T04:42:05.670Z,102530.97
2022-12-18T04:45:09.488Z,102536.03
2022-12-18T04:48:13.522Z,102534.28
2022-12-18T04:51:16.352Z,102546.28
2022-12-18T04:54:19.292Z,102561.88
2022-12-18T04:57:22.072Z,102564.72
2022-12-18T05:00:24.852Z,102562.25
2022-12-18T05:03:28.535Z,102561.41
2022-12-18T05:06:31.387Z,102558.47
2022-12-18T05:09:34.257Z,102564.31
2022-12-18T05:12:57.412Z,102575.06
2022-12-18T05:16:00.321Z,102589.03
2022-12-18T05:19:03.492Z,102587.19
2022-12-18T05:22:09.597Z,102584.34
2022-12-18T05:25:12.754Z,102595.09
2022-12-18T05:28:15.576Z,102597.97
2022-12-18T05:31:18.836Z,102608.34
2022-12-18T05:34:21.621Z,102613.53
2022-12-18T05:37:24.699Z,102613.94
2022-12-18T05:40:27.486Z,102615.50
2022-12-18T05:43:31.311Z,102625.41
2022-12-18T05:46:34.102Z,102629.13
2022-12-18T05:49:36.958Z,102632.19
2022-12-18T05:52:39.655Z,102634.97
2022-12-18T05:55:43.478Z,102633.78
2022-12-18T05:58:46.931Z,102641.63
2022-12-18T06:01:52.352Z,102641.16
2022-12-18T06:04:55.191Z,102649.97
2022-12-18T06:07:57.986Z,102650.03
2022-12-18T06:11:00.719Z,102652.41
2022-12-18T06:14:05.034Z,102653.22
2022-12-18T06:17:07.851Z,102659.78
2022-12-18T06:20:11.030Z,102658.78
2022-12-18T06:23:13.797Z,102658.78
2022-12-18T06:26:16.529Z,102669.22
2022-12-18T06:29:19.433Z,102664.03
2022-12-18T06:32:23.522Z,102662.03
2022-12-18T06:35:26.377Z,102676.47
2022-12-18T06:38:29.147Z,102676.47
2022-12-18T06:41:32.190Z,102684.13
2022-12-18T06:44:35.051Z,102696.75
2022-12-18T06:47:38.042Z,102700.69
2022-12-18T06:50:43.678Z,102705.06
2022-12-18T06:53:46.746Z,102711.53
2022-12-18T06:56:49.449Z,102710.13
2022-12-18T06:59:53.678Z,102720.44
2022-12-18T07:02:56.544Z,102718.88
2022-12-18T07:05:59.456Z,102711.44
2022-12-18T07:09:02.434Z,102716.84
2022-12-18T07:12:06.088Z,102722.06
2022-12-18T07:15:09.284Z,102723.03
2022-12-18T07:18:12.067Z,102730.34
2022-12-18T07:21:18.061Z,102742.44
2022-12-18T07:24:20.802Z,102733.44
2022-12-18T07:27:24.036Z,102742.53
2022-12-18T07:30:27.418Z,102741.72
2022-12-18T07:33:30.149Z,102735.75
2022-12-18T07:36:33.709Z,102759.00
2022-12-18T07:39:36.486Z,102757.41
2022-12-18T07:42:39.578Z,102757.09
2022-12-18T07:45:43.548Z,102756.78
2022-12-18T07:48:49.840Z,102759.81
2022-12-18T07:51:56.080Z,102754.63
2022-12-18T07:54:58.892Z,102762.28
2022-12-18T07:58:03.551Z,102765.91
2022-12-18T08:01:11.757Z,102760.56
2022-12-18T08:04:14.750Z,102757.50
2022-12-18T08:07:17.544Z,102764.34
2022-12-18T08:10:21.399Z,102768.66
2022-12-18T08:13:24.856Z,102778.00
2022-12-18T08:16:27.904Z,102781.75
2022-12-18T08:19:30.862Z,102788.00
2022-12-18T08:22:38.936Z,102796.22
2022-12-18T08:25:41.770Z,102789.81
2022-12-18T08:28:45.471Z,102787.63
2022-12-18T08:31:53.053Z,102796.94
2022-12-18T08:34:55.891Z,102785.28
2022-12-18T08:37:58.937Z,102793.25
2022-12-18T08:41:07.098Z,102802.47
2022-12-18T08:44:28.394Z,102799.25
2022-12-18T08:47:31.243Z,102796.44
2022-12-18T08:50:34.133Z,102809.25
2022-12-18T08:53:38.118Z,102804.25
2022-12-18T08:56:41.494Z,102809.16
2022-12-18T08:59:44.381Z,102813.84
2022-12-18T09:02:47.395Z,102798.88
2022-12-18T09:05:50.289Z,102805.56
2022-12-18T09:08:53.115Z,102795.59
2022-12-18T09:11:56.200Z,102805.78
2022-12-18T09:14:59.002Z,102815.00
2022-12-18T09:18:01.815Z,102816.88
2022-12-18T09:21:20.230Z,102818.63
2022-12-18T09:24:26.343Z,102804.75
2022-12-18T09:27:30.218Z,102809.22
2022-12-18T09:30:35.309Z,102807.06
2022-12-18T09:33:39.081Z,102805.72
2022-12-18T09:36:42.000Z,102801.94
2022-12-18T09:39:46.642Z,102798.56
2022-12-18T09:43:00.554Z,102779.94
2022-12-18T09:46:10.267Z,102787.53
2022-12-18T09:49:17.641Z,102783.78
2022-12-18T09:52:45.517Z,102799.53
2022-12-18T09:55:50.168Z,102793.44
2022-12-18T09:59:02.614Z,102790.78
2022-12-18T10:02:22.465Z,102787.38
2022-12-18T10:05:41.343Z,102790.53
2022-12-18T10:09:05.053Z,102786.72
2022-12-18T10:12:10.941Z,102787.50
2022-12-18T10:15:25.631Z,102772.25
2022-12-18T10:18:38.649Z,102765.63
2022-12-18T10:22:00.398Z,102765.56
2022-12-18T10:25:16.528Z,102769.78
2022-12-18T10:28:21.689Z,102778.09
2022-12-18T10:31:25.866Z,102776.44
2022-12-18T10:34:28.660Z,102793.19
2022-12-18T10:37:31.573Z,102795.72
2022-12-18T10:40:53.376Z,102782.63
2022-12-18T10:44:13.084Z,102778.28
2022-12-18T10:47:20.074Z,102768.63
2022-12-18T10:51:01.368Z,102782.09
2022-12-18T10:54:16.031Z,102762.69
2022-12-18T10:57:27.862Z,102760.59
2022-12-18T11:00:31.953Z,102748.22
2022-12-18T11:03:38.510Z,102752.78
2022-12-18T11:07:04.135Z,102776.28
2022-12-18T11:10:17.361Z,102777.63
2022-12-18T11:13:23.337Z,102775.38
2022-12-18T11:16:27.791Z,102783.28
2022-12-18T11:19:38.050Z,102778.38
2022-12-18T11:22:41.332Z,102780.38
2022-12-18T11:25:53.660Z,102785.69
2022-12-18T11:29:12.151Z,102787.06
2022-12-18T11:32:30.696Z,102785.13
2022-12-18T11:35:51.942Z,102782.78
2022-12-18T11:38:56.922Z,102760.75
2022-12-18T11:42:15.442Z,102790.75
2022-12-18T11:45:28.288Z,102798.06
2022-12-18T11:48:47.782Z,102792.22
2022-12-18T11:52:11.832Z,102783.81
2022-12-18T11:55:17.544Z,102793.66
2022-12-18T11:58:29.362Z,102794.63
2022-12-18T12:01:44.929Z,102785.03
2022-12-18T12:04:52.300Z,102770.34
2022-12-18T12:08:07.323Z,102772.03
2022-12-18T12:11:31.668Z,102761.84
2022-12-18T12:14:53.158Z,102773.84
2022-12-18T12:18:23.949Z,102770.97
2022-12-18T12:21:35.880Z,102762.13
2022-12-18T12:25:09.821Z,102753.50
2022-12-18T12:28:15.744Z,102762.06
2022-12-18T12:31:23.965Z,102770.88
2022-12-18T12:34:54.818Z,102763.13
2022-12-18T12:38:12.393Z,102760.34
2022-12-18T12:41:38.801Z,102775.25
2022-12-18T12:44:52.738Z,102767.38
2022-12-18T12:48:00.815Z,102773.84
2022-12-18T12:51:11.327Z,102784.03
2022-12-18T12:54:25.890Z,102788.41
2022-12-18T12:57:57.602Z,102792.69
2022-12-18T13:01:28.637Z,102792.97
2022-12-18T13:05:05.841Z,102795.94
2022-12-18T13:08:11.221Z,102797.00
2022-12-18T13:12:01.444Z,102797.72
2022-12-18T13:15:36.764Z,102805.28
2022-12-18T13:18:59.927Z,102806.44
2022-12-18T13:22:02.759Z,102810.03
2022-12-18T13:25:36.257Z,102809.44
2022-12-18T13:28:48.818Z,102804.25
2022-12-18T13:31:59.313Z,102809.94
2022-12-18T13:35:21.050Z,102824.50
2022-12-18T13:38:35.009Z,102824.50
2022-12-18T13:41:38.075Z,102833.53
2022-12-18T13:44:42.519Z,102833.72
2022-12-18T13:47:45.362Z,102825.03
2022-12-18T13:51:18.897Z,102833.84
2022-12-18T13:54:38.651Z,102835.56
2022-12-18T13:57:42.217Z,102840.78
2022-12-18T14:00:45.765Z,102818.75
2022-12-18T14:03:49.523Z,102824.53
2022-12-18T14:07:05.284Z,102819.72
2022-12-18T14:10:44.305Z,102826.84
2022-12-18T14:13:43.112Z,102826.50
2022-12-18T14:16:48.185Z,102830.19
2022-12-18T14:19:52.809Z,102832.19
2022-12-18T14:22:57.355Z,102842.50
2022-12-18T14:26:06.006Z,102862.53
2022-12-18T14:29:29.794Z,102858.91
2022-12-18T14:32:32.737Z,102866.22
2022-12-18T14:35:44.962Z,102864.78
2022-12-18T14:38:56.313Z,102876.75
2022-12-18T14:41:59.171Z,102880.63
2022-12-18T14:45:43.323Z,102888.94
2022-12-18T14:48:48.900Z,102890.28
2022-12-18T14:51:55.249Z,102884.63
2022-12-18T14:54:58.413Z,102886.06
2022-12-18T14:58:01.245Z,102883.84
2022-12-18T15:01:04.209Z,102887.63
2022-12-18T15:04:24.048Z,102899.16
2022-12-18T15:07:27.310Z,102893.19
2022-12-18T15:10:32.759Z,102894.63
2022-12-18T15:13:35.912Z,102899.97
2022-12-18T15:16:42.244Z,102906.09
2022-12-18T15:19:52.526Z,102900.00
2022-12-18T15:22:55.725Z,102911.75
2022-12-18T15:26:01.683Z,102917.44
2022-12-18T15:29:04.535Z,102921.94
2022-12-18T15:32:20.458Z,102915.47
2022-12-18T15:35:25.626Z,102921.94
2022-12-18T15:38:28.732Z,102940.09
2022-12-18T15:41:35.778Z,102944.78
2022-12-18T15:44:39.589Z,102950.41
2022-12-18T15:47:45.790Z,102958.69
2022-12-18T15:50:49.553Z,102961.53
2022-12-18T15:53:55.665Z,102959.03
2022-12-18T15:57:18.256Z,102973.34
2022-12-18T16:00:21.365Z,102983.88
2022-12-18T16:03:24.561Z,102978.56
2022-12-18T16:06:40.312Z,102980.38
2022-12-18T16:09:52.142Z,102986.28
2022-12-18T16:12:55.306Z,102993.94
2022-12-18T16:15:58.785Z,102983.81
2022-12-18T16:19:02.004Z,102983.94
2022-12-18T16:22:07.151Z,102983.25
2022-12-18T16:25:23.251Z,102983.84
2022-12-18T16:28:26.285Z,102993.41
2022-12-18T16:31:29.402Z,103000.03
2022-12-18T16:34:35.874Z,102996.78
2022-12-18T16:37:40.082Z,103007.47
2022-12-18T16:41:03.207Z,103008.97
2022-12-18T16:44:07.430Z,103016.66
2022-12-18T16:47:11.769Z,103017.69
2022-12-18T16:50:18.788Z,103014.97
2022-12-18T16:53:21.888Z,103014.41
2022-12-18T16:56:25.669Z,103012.94
2022-12-18T16:59:29.388Z,102999.19
2022-12-18T17:02:33.745Z,102996.75
2022-12-18T17:05:36.988Z,102994.22
2022-12-18T17:08:40.100Z,103002.38
2022-12-18T17:11:44.058Z,103006.03
2022-12-18T17:14:47.171Z,103010.03
2022-12-18T17:17:51.246Z,103014.00
2022-12-18T17:20:59.551Z,103018.53
2022-12-18T17:24:03.110Z,103019.94
2022-12-18T17:27:06.394Z,103028.59
2022-12-18T17:30:10.852Z,103026.22
2022-12-18T17:33:14.109Z,103021.72
2022-12-18T17:36:17.938Z,103029.88
2022-12-18T17:39:22.215Z,103019.44
2022-12-18T17:42:26.478Z,103013.84
2022-12-18T17:45:29.311Z,103009.59
2022-12-18T17:48:33.945Z,103007.50
2022-12-18T17:51:37.140Z,103006.25
2022-12-18T17:54:42.335Z,103004.19
2022-12-18T17:57:46.585Z,103013.56
2022-12-18T18:00:50.091Z,103021.22
2022-12-18T18:03:56.142Z,103014.19
2022-12-18T18:06:59.234Z,103017.38
2022-12-18T18:10:04.074Z,103009.88
2022-12-18T18:13:46.625Z,103025.19
2022-12-18T18:16:52.644Z,103020.97
2022-12-18T18:19:55.676Z,103024.09
2022-12-18T18:22:59.608Z,103027.16
2022-12-18T18:26:05.203Z,103037.09
2022-12-18T18:29:12.258Z,103041.59
2022-12-18T18:32:15.578Z,103042.50
2022-12-18T18:35:45.092Z,103034.19
2022-12-18T18:38:46.710Z,103024.06
2022-12-18T18:41:51.989Z,103031.16
2022-12-18T18:44:55.139Z,103031.34
2022-12-18T18:47:59.198Z,103028.03
2022-12-18T18:51:08.133Z,103045.78
2022-12-18T18:54:11.689Z,103041.69
2022-12-18T18:57:24.239Z,103043.44
2022-12-18T19:00:29.059Z,103046.97
2022-12-18T19:03:33.453Z,103046.03
2022-12-18T19:06:36.485Z,103041.84
2022-12-18T19:09:40.448Z,103047.34
2022-12-18T19:13:01.825Z,103051.78
2022-12-18T19:16:08.028Z,103058.56
2022-12-18T19:19:13.194Z,103045.59
2022-12-18T19:22:16.461Z,103053.47
2022-12-18T19:25:19.686Z,103060.19
2022-12-18T19:28:32.093Z,103073.31
2022-12-18T19:31:37.126Z,103071.19
2022-12-18T19:34:40.559Z,103078.84
2022-12-18T19:37:43.818Z,103069.03
2022-12-18T19:40:46.893Z,103077.38
2022-12-18T19:43:51.478Z,103079.31
2022-12-18T19:46:54.554Z,103075.03
2022-12-18T19:49:57.626Z,103076.25
2022-12-18T19:53:01.114Z,103081.44
2022-12-18T19:56:09.328Z,103085.91
2022-12-18T19:59:12.937Z,103081.78
2022-12-18T20:02:15.942Z,103067.25
2022-12-18T20:05:25.122Z,103071.88
2022-12-18T20:08:28.150Z,103078.78
2022-12-18T20:11:32.153Z,103082.97
2022-12-18T20:14:35.818Z,103089.78
2022-12-18T20:17:39.332Z,103076.47
2022-12-18T20:20:42.155Z,103071.88
2022-12-18T20:23:45.694Z,103069.44
2022-12-18T20:26:48.901Z,103068.59
2022-12-18T20:29:52.071Z,103082.41
2022-12-18T20:32:55.178Z,103087.59
2022-12-18T20:36:21.350Z,103088.44
2022-12-18T20:39:27.648Z,103085.00
2022-12-18T20:42:31.422Z,103084.25
2022-12-18T20:45:34.382Z,103081.72
2022-12-18T20:48:39.083Z,103079.97
2022-12-18T20:51:42.054Z,103090.50
2022-12-18T20:54:45.112Z,103098.38
2022-12-18T20:57:48.554Z,103091.41
2022-12-18T21:01:02.446Z,103096.03
2022-12-18T21:04:05.659Z,103104.69
2022-12-18T21:07:08.705Z,103100.59
2022-12-18T21:10:11.761Z,103107.28
2022-12-18T21:13:14.529Z,103110.47
2022-12-18T21:16:19.449Z,103119.19
2022-12-18T21:19:25.585Z,103108.09
2022-12-18T21:22:28.918Z,103107.91
2022-12-18T21:25:31.790Z,103103.56
2022-12-18T21:28:34.617Z,103109.88
2022-12-18T21:31:39.334Z,103114.16
2022-12-18T21:34:47.850Z,103110.50
2022-12-18T21:37:51.091Z,103109.69
2022-12-18T21:40:54.005Z,103119.81
2022-12-18T21:44:06.089Z,103118.69
2022-12-18T21:47:21.848Z,103116.81
2022-12-18T21:50:26.190Z,103112.97
2022-12-18T21:53:28.966Z,103110.78
2022-12-18T21:56:44.110Z,103104.34
2022-12-18T21:59:46.908Z,103104.16
2022-12-18T22:03:17.547Z,103103.00
2022-12-18T22:06:13.022Z,103105.03
2022-12-18T22:09:19.292Z,103100.41
2022-12-18T22:12:35.831Z,103092.28
2022-12-18T22:15:47.000Z,103090.09
2022-12-18T22:18:49.962Z,103087.19
2022-12-18T22:21:53.286Z,103092.56
2022-12-18T22:24:56.137Z,103101.50
2022-12-18T22:28:17.658Z,103107.03
2022-12-18T22:31:20.496Z,103095.00
2022-12-18T22:34:23.513Z,103086.97
2022-12-18T22:37:26.491Z,103069.31
2022-12-18T22:40:29.924Z,103075.94
2022-12-18T22:43:33.517Z,103070.75
2022-12-18T22:46:39.433Z,103077.97
2022-12-18T22:49:42.417Z,103085.38
2022-12-18T22:52:45.212Z,103072.28
2022-12-18T22:55:48.064Z,103075.31
2022-12-18T22:58:51.837Z,103075.22
2022-12-18T23:01:59.104Z,103079.91
2022-12-18T23:05:02.523Z,103087.38
2022-12-18T23:08:05.392Z,103097.41
2022-12-18T23:11:08.967Z,103105.91
2022-12-18T23:14:12.370Z,103098.38
2022-12-18T23:17:15.186Z,103109.84
2022-12-18T23:20:17.942Z,103109.56
2022-12-18T23:23:20.708Z,103116.91
2022-12-18T23:26:25.860Z,103105.59
2022-12-18T23:29:28.586Z,103100.00
2022-12-18T23:32:31.424Z,103097.69
2022-12-18T23:35:35.819Z,103104.56
2022-12-18T23:38:38.977Z,103101.44
2022-12-18T23:41:41.718Z,103100.34
2022-12-18T23:44:44.426Z,103100.72
2022-12-18T23:47:48.265Z,103099.69
2022-12-18T23:50:54.168Z,103114.06
2022-12-18T23:53:59.256Z,103111.44
2022-12-18T23:57:02.234Z,103104.94
